sensor_id;sensor_type;location;lat;lon;timestamp;temperature;humidity
17172;DHT22;8701;50.150;8.756;2023-09-19T00:03:57;18.20;99.90
17172;DHT22;8701;50.150;8.756;2023-09-19T00:07:59;18.20;99.90
17172;DHT22;8701;50.150;8.756;2023-09-19T00:12:01;18.20;99.90
17172;DHT22;8701;50.150;8.756;2023-09-19T00:16:10;18.20;99.90
17172;DHT22;8701;50.150;8.756;2023-09-19T00:20:13;18.10;99.90
17172;DHT22;8701;50.150;8.756;2023-09-19T00:24:16;18.10;99.90
17172;DHT22;8701;50.150;8.756;2023-09-19T00:28:19;18.10;99.90
17172;DHT22;8701;50.150;8.756;2023-09-19T00:32:23;18.10;99.90
17172;DHT22;8701;50.150;8.756;2023-09-19T00:36:26;18.00;99.90
17172;DHT22;8701;50.150;8.756;2023-09-19T00:40:28;18.00;99.90
17172;DHT22;8701;50.150;8.756;2023-09-19T00:44:30;18.00;99.90
17172;DHT22;8701;50.150;8.756;2023-09-19T00:48:40;18.10;99.90
17172;DHT22;8701;50.150;8.756;2023-09-19T00:52:46;18.10;99.90
17172;DHT22;8701;50.150;8.756;2023-09-19T00:56:51;18.10;99.90
17172;DHT22;8701;50.150;8.756;2023-09-19T01:00:55;18.10;99.90
17172;DHT22;8701;50.150;8.756;2023-09-19T01:04:59;18.00;99.90
17172;DHT22;8701;50.150;8.756;2023-09-19T01:09:02;18.00;99.90
17172;DHT22;8701;50.150;8.756;2023-09-19T01:13:11;18.00;99.90
17172;DHT22;8701;50.150;8.756;2023-09-19T01:17:20;18.00;99.90
17172;DHT22;8701;50.150;8.756;2023-09-19T01:21:30;18.00;99.90
17172;DHT22;8701;50.150;8.756;2023-09-19T01:26:05;18.00;99.90
17172;DHT22;8701;50.150;8.756;2023-09-19T01:30:14;18.00;99.90
17172;DHT22;8701;50.150;8.756;2023-09-19T01:34:19;18.00;99.90
17172;DHT22;8701;50.150;8.756;2023-09-19T01:38:21;18.00;99.90
17172;DHT22;8701;50.150;8.756;2023-09-19T01:42:30;17.90;99.90
17172;DHT22;8701;50.150;8.756;2023-09-19T01:46:37;18.10;99.90
17172;DHT22;8701;50.150;8.756;2023-09-19T01:50:44;18.00;99.90
17172;DHT22;8701;50.150;8.756;2023-09-19T01:54:51;18.00;99.90
17172;DHT22;8701;50.150;8.756;2023-09-19T01:58:56;18.00;99.90
17172;DHT22;8701;50.150;8.756;2023-09-19T02:03:03;17.90;99.90
17172;DHT22;8701;50.150;8.756;2023-09-19T02:07:06;17.90;99.90
17172;DHT22;8701;50.150;8.756;2023-09-19T02:11:09;17.90;99.90
17172;DHT22;8701;50.150;8.756;2023-09-19T02:15:12;17.90;99.90
17172;DHT22;8701;50.150;8.756;2023-09-19T02:19:18;18.00;99.90
17172;DHT22;8701;50.150;8.756;2023-09-19T02:23:22;17.90;99.90
17172;DHT22;8701;50.150;8.756;2023-09-19T02:27:24;17.90;99.90
17172;DHT22;8701;50.150;8.756;2023-09-19T02:31:26;17.80;99.90
17172;DHT22;8701;50.150;8.756;2023-09-19T02:35:32;17.90;99.90
17172;DHT22;8701;50.150;8.756;2023-09-19T02:39:37;17.80;99.90
17172;DHT22;8701;50.150;8.756;2023-09-19T02:43:40;17.80;99.90
17172;DHT22;8701;50.150;8.756;2023-09-19T02:47:44;17.70;99.90
17172;DHT22;8701;50.150;8.756;2023-09-19T02:51:48;17.60;99.90
17172;DHT22;8701;50.150;8.756;2023-09-19T02:55:50;17.50;99.90
17172;DHT22;8701;50.150;8.756;2023-09-19T02:59:55;17.50;99.90
17172;DHT22;8701;50.150;8.756;2023-09-19T03:03:58;17.50;99.90
17172;DHT22;8701;50.150;8.756;2023-09-19T03:08:02;17.40;99.90
17172;DHT22;8701;50.150;8.756;2023-09-19T03:12:06;17.40;99.90
17172;DHT22;8701;50.150;8.756;2023-09-19T03:16:10;17.40;99.90
17172;DHT22;8701;50.150;8.756;2023-09-19T03:20:12;17.40;99.90
17172;DHT22;8701;50.150;8.756;2023-09-19T03:24:16;17.40;99.90
17172;DHT22;8701;50.150;8.756;2023-09-19T03:28:18;17.40;99.90
17172;DHT22;8701;50.150;8.756;2023-09-19T03:32:22;17.30;99.90
17172;DHT22;8701;50.150;8.756;2023-09-19T03:36:24;17.30;99.90
17172;DHT22;8701;50.150;8.756;2023-09-19T03:40:30;17.20;99.90
17172;DHT22;8701;50.150;8.756;2023-09-19T03:44:33;17.20;99.90
17172;DHT22;8701;50.150;8.756;2023-09-19T03:48:35;17.10;99.90
17172;DHT22;8701;50.150;8.756;2023-09-19T03:52:38;17.10;99.90
17172;DHT22;8701;50.150;8.756;2023-09-19T03:56:42;17.10;99.90
17172;DHT22;8701;50.150;8.756;2023-09-19T04:00:45;17.10;99.90
17172;DHT22;8701;50.150;8.756;2023-09-19T04:04:48;17.10;99.90
17172;DHT22;8701;50.150;8.756;2023-09-19T04:08:50;17.20;99.90
17172;DHT22;8701;50.150;8.756;2023-09-19T04:12:54;17.00;99.90
17172;DHT22;8701;50.150;8.756;2023-09-19T04:16:57;17.00;99.90
17172;DHT22;8701;50.150;8.756;2023-09-19T04:20:59;17.00;99.90
17172;DHT22;8701;50.150;8.756;2023-09-19T04:25:03;17.00;99.90
17172;DHT22;8701;50.150;8.756;2023-09-19T04:29:09;17.00;99.90
17172;DHT22;8701;50.150;8.756;2023-09-19T04:33:12;17.10;99.90
17172;DHT22;8701;50.150;8.756;2023-09-19T04:37:15;17.10;99.90
17172;DHT22;8701;50.150;8.756;2023-09-19T04:41:17;17.10;99.90
17172;DHT22;8701;50.150;8.756;2023-09-19T04:45:21;17.10;99.90
17172;DHT22;8701;50.150;8.756;2023-09-19T04:49:24;17.20;99.90
17172;DHT22;8701;50.150;8.756;2023-09-19T04:53:26;17.20;99.90
17172;DHT22;8701;50.150;8.756;2023-09-19T04:57:29;17.20;99.90
17172;DHT22;8701;50.150;8.756;2023-09-19T05:01:33;17.20;99.90
17172;DHT22;8701;50.150;8.756;2023-09-19T05:05:36;17.20;99.90
17172;DHT22;8701;50.150;8.756;2023-09-19T05:09:39;17.10;99.90
17172;DHT22;8701;50.150;8.756;2023-09-19T05:13:43;17.10;99.90
17172;DHT22;8701;50.150;8.756;2023-09-19T05:17:49;17.00;99.90
17172;DHT22;8701;50.150;8.756;2023-09-19T05:21:52;17.00;99.90
17172;DHT22;8701;50.150;8.756;2023-09-19T05:25:56;17.00;99.90
17172;DHT22;8701;50.150;8.756;2023-09-19T05:29:59;17.10;99.90
17172;DHT22;8701;50.150;8.756;2023-09-19T05:34:03;17.10;99.90
17172;DHT22;8701;50.150;8.756;2023-09-19T05:38:05;17.00;99.90
17172;DHT22;8701;50.150;8.756;2023-09-19T05:42:10;17.00;99.90
17172;DHT22;8701;50.150;8.756;2023-09-19T05:46:12;17.00;99.90
17172;DHT22;8701;50.150;8.756;2023-09-19T05:50:18;17.00;99.90
17172;DHT22;8701;50.150;8.756;2023-09-19T05:54:20;17.00;99.90
17172;DHT22;8701;50.150;8.756;2023-09-19T05:58:23;17.00;99.90
17172;DHT22;8701;50.150;8.756;2023-09-19T06:02:25;17.10;99.90
17172;DHT22;8701;50.150;8.756;2023-09-19T06:06:31;17.00;99.90
17172;DHT22;8701;50.150;8.756;2023-09-19T06:10:34;17.00;99.90
17172;DHT22;8701;50.150;8.756;2023-09-19T06:14:37;16.90;99.90
17172;DHT22;8701;50.150;8.756;2023-09-19T06:18:39;17.10;99.90
17172;DHT22;8701;50.150;8.756;2023-09-19T06:22:44;17.10;99.90
17172;DHT22;8701;50.150;8.756;2023-09-19T06:26:46;17.20;99.90
17172;DHT22;8701;50.150;8.756;2023-09-19T06:30:50;17.20;99.90
17172;DHT22;8701;50.150;8.756;2023-09-19T06:34:53;17.30;99.90
17172;DHT22;8701;50.150;8.756;2023-09-19T06:38:57;17.30;99.90
17172;DHT22;8701;50.150;8.756;2023-09-19T06:43:00;17.30;99.90
17172;DHT22;8701;50.150;8.756;2023-09-19T06:47:04;17.40;99.90
17172;DHT22;8701;50.150;8.756;2023-09-19T06:51:07;17.50;99.90
17172;DHT22;8701;50.150;8.756;2023-09-19T06:55:12;17.60;99.90
17172;DHT22;8701;50.150;8.756;2023-09-19T06:59:17;17.70;99.90
17172;DHT22;8701;50.150;8.756;2023-09-19T07:03:19;17.70;99.90
17172;DHT22;8701;50.150;8.756;2023-09-19T07:07:22;17.70;99.90
17172;DHT22;8701;50.150;8.756;2023-09-19T07:11:26;17.70;99.90
17172;DHT22;8701;50.150;8.756;2023-09-19T07:15:29;17.70;99.90
17172;DHT22;8701;50.150;8.756;2023-09-19T07:19:32;17.80;99.90
17172;DHT22;8701;50.150;8.756;2023-09-19T07:23:34;17.80;99.90
17172;DHT22;8701;50.150;8.756;2023-09-19T07:27:38;17.90;99.90
17172;DHT22;8701;50.150;8.756;2023-09-19T07:31:40;18.00;99.90
17172;DHT22;8701;50.150;8.756;2023-09-19T07:35:45;17.90;99.90
17172;DHT22;8701;50.150;8.756;2023-09-19T07:39:48;18.10;99.90
17172;DHT22;8701;50.150;8.756;2023-09-19T07:43:53;18.20;99.90
17172;DHT22;8701;50.150;8.756;2023-09-19T07:47:55;18.30;99.90
17172;DHT22;8701;50.150;8.756;2023-09-19T07:51:57;18.50;99.90
17172;DHT22;8701;50.150;8.756;2023-09-19T07:56:04;18.50;99.90
17172;DHT22;8701;50.150;8.756;2023-09-19T08:00:09;18.70;99.90
17172;DHT22;8701;50.150;8.756;2023-09-19T08:04:13;18.80;99.90
17172;DHT22;8701;50.150;8.756;2023-09-19T08:08:15;18.80;99.90
17172;DHT22;8701;50.150;8.756;2023-09-19T08:12:17;18.80;99.90
17172;DHT22;8701;50.150;8.756;2023-09-19T08:16:26;18.90;99.90
17172;DHT22;8701;50.150;8.756;2023-09-19T08:20:28;18.80;99.90
17172;DHT22;8701;50.150;8.756;2023-09-19T08:24:32;19.00;99.90
17172;DHT22;8701;50.150;8.756;2023-09-19T08:28:35;19.30;99.90
17172;DHT22;8701;50.150;8.756;2023-09-19T08:32:39;19.70;99.90
17172;DHT22;8701;50.150;8.756;2023-09-19T08:36:43;20.20;99.90
17172;DHT22;8701;50.150;8.756;2023-09-19T08:40:46;20.20;99.90
17172;DHT22;8701;50.150;8.756;2023-09-19T08:44:48;20.10;99.90
17172;DHT22;8701;50.150;8.756;2023-09-19T08:49:03;20.00;99.90
17172;DHT22;8701;50.150;8.756;2023-09-19T08:53:11;20.50;99.90
17172;DHT22;8701;50.150;8.756;2023-09-19T08:57:16;20.50;99.90
17172;DHT22;8701;50.150;8.756;2023-09-19T09:01:22;20.20;99.90
17172;DHT22;8701;50.150;8.756;2023-09-19T09:05:27;20.10;99.90
17172;DHT22;8701;50.150;8.756;2023-09-19T09:09:31;20.30;99.90
17172;DHT22;8701;50.150;8.756;2023-09-19T09:13:34;21.10;99.90
17172;DHT22;8701;50.150;8.756;2023-09-19T09:17:36;21.20;99.90
17172;DHT22;8701;50.150;8.756;2023-09-19T09:21:40;22.00;99.90
17172;DHT22;8701;50.150;8.756;2023-09-19T09:25:50;22.50;99.90
17172;DHT22;8701;50.150;8.756;2023-09-19T09:29:55;22.40;99.90
17172;DHT22;8701;50.150;8.756;2023-09-19T09:33:58;22.90;99.90
17172;DHT22;8701;50.150;8.756;2023-09-19T09:38:01;22.80;99.90
17172;DHT22;8701;50.150;8.756;2023-09-19T09:42:07;22.60;99.90
17172;DHT22;8701;50.150;8.756;2023-09-19T09:46:13;23.00;99.90
17172;DHT22;8701;50.150;8.756;2023-09-19T09:50:31;23.50;99.90
17172;DHT22;8701;50.150;8.756;2023-09-19T09:55:00;23.70;99.90
17172;DHT22;8701;50.150;8.756;2023-09-19T09:59:06;24.50;99.90
17172;DHT22;8701;50.150;8.756;2023-09-19T10:03:19;25.30;99.90
17172;DHT22;8701;50.150;8.756;2023-09-19T10:07:25;25.40;99.90
17172;DHT22;8701;50.150;8.756;2023-09-19T10:11:34;25.80;99.90
17172;DHT22;8701;50.150;8.756;2023-09-19T10:15:43;25.90;99.90
17172;DHT22;8701;50.150;8.756;2023-09-19T10:19:55;26.50;99.90
17172;DHT22;8701;50.150;8.756;2023-09-19T10:24:00;26.50;99.90
17172;DHT22;8701;50.150;8.756;2023-09-19T10:28:08;26.20;99.90
17172;DHT22;8701;50.150;8.756;2023-09-19T10:32:14;25.80;99.90
17172;DHT22;8701;50.150;8.756;2023-09-19T10:36:21;25.60;99.90
17172;DHT22;8701;50.150;8.756;2023-09-19T10:40:24;26.10;99.90
17172;DHT22;8701;50.150;8.756;2023-09-19T10:44:33;26.50;99.40
17172;DHT22;8701;50.150;8.756;2023-09-19T10:48:36;27.10;99.70
17172;DHT22;8701;50.150;8.756;2023-09-19T10:52:40;28.10;96.50
17172;DHT22;8701;50.150;8.756;2023-09-19T10:56:47;28.60;97.00
17172;DHT22;8701;50.150;8.756;2023-09-19T11:00:53;28.70;94.70
17172;DHT22;8701;50.150;8.756;2023-09-19T11:05:11;28.70;93.70
17172;DHT22;8701;50.150;8.756;2023-09-19T11:09:14;28.80;93.90
17172;DHT22;8701;50.150;8.756;2023-09-19T11:13:27;29.00;92.70
17172;DHT22;8701;50.150;8.756;2023-09-19T11:17:34;29.40;92.50
17172;DHT22;8701;50.150;8.756;2023-09-19T11:21:53;28.90;92.40
17172;DHT22;8701;50.150;8.756;2023-09-19T11:25:59;27.00;93.70
17172;DHT22;8701;50.150;8.756;2023-09-19T11:30:25;27.90;93.60
17172;DHT22;8701;50.150;8.756;2023-09-19T11:34:46;29.10;91.00
17172;DHT22;8701;50.150;8.756;2023-09-19T11:38:58;29.90;90.90
17172;DHT22;8701;50.150;8.756;2023-09-19T11:43:27;30.70;89.10
17172;DHT22;8701;50.150;8.756;2023-09-19T11:47:32;31.60;86.30
17172;DHT22;8701;50.150;8.756;2023-09-19T11:51:42;30.90;86.20
17172;DHT22;8701;50.150;8.756;2023-09-19T11:55:45;30.70;83.60
17172;DHT22;8701;50.150;8.756;2023-09-19T11:59:47;30.90;83.00
17172;DHT22;8701;50.150;8.756;2023-09-19T12:03:53;31.80;85.50
17172;DHT22;8701;50.150;8.756;2023-09-19T12:07:59;31.80;80.90
17172;DHT22;8701;50.150;8.756;2023-09-19T12:12:02;31.70;80.10
17172;DHT22;8701;50.150;8.756;2023-09-19T12:16:11;32.10;76.70
17172;DHT22;8701;50.150;8.756;2023-09-19T12:20:15;30.10;77.00
17172;DHT22;8701;50.150;8.756;2023-09-19T12:24:19;29.50;80.00
17172;DHT22;8701;50.150;8.756;2023-09-19T12:28:23;29.10;85.30
17172;DHT22;8701;50.150;8.756;2023-09-19T12:32:34;30.50;79.80
17172;DHT22;8701;50.150;8.756;2023-09-19T12:36:36;31.70;77.00
17172;DHT22;8701;50.150;8.756;2023-09-19T12:40:41;32.50;80.70
17172;DHT22;8701;50.150;8.756;2023-09-19T12:44:46;33.00;74.70
17172;DHT22;8701;50.150;8.756;2023-09-19T12:53:24;33.00;73.80
17172;DHT22;8701;50.150;8.756;2023-09-19T12:57:31;32.60;72.90
17172;DHT22;8701;50.150;8.756;2023-09-19T13:01:35;32.70;72.70
17172;DHT22;8701;50.150;8.756;2023-09-19T13:05:51;32.10;71.80
17172;DHT22;8701;50.150;8.756;2023-09-19T13:10:03;32.20;68.90
17172;DHT22;8701;50.150;8.756;2023-09-19T13:14:22;32.00;71.40
17172;DHT22;8701;50.150;8.756;2023-09-19T13:18:25;31.80;72.20
17172;DHT22;8701;50.150;8.756;2023-09-19T13:22:37;31.90;71.50
17172;DHT22;8701;50.150;8.756;2023-09-19T13:26:40;31.90;74.10
17172;DHT22;8701;50.150;8.756;2023-09-19T13:30:44;31.70;69.00
17172;DHT22;8701;50.150;8.756;2023-09-19T13:34:47;30.50;70.30
17172;DHT22;8701;50.150;8.756;2023-09-19T13:38:49;29.40;73.50
17172;DHT22;8701;50.150;8.756;2023-09-19T13:42:54;29.20;73.40
17172;DHT22;8701;50.150;8.756;2023-09-19T13:46:57;29.20;72.80
17172;DHT22;8701;50.150;8.756;2023-09-19T13:51:00;28.90;74.10
17172;DHT22;8701;50.150;8.756;2023-09-19T13:55:02;28.20;75.70
17172;DHT22;8701;50.150;8.756;2023-09-19T13:59:05;28.10;77.70
17172;DHT22;8701;50.150;8.756;2023-09-19T14:03:08;28.30;79.70
17172;DHT22;8701;50.150;8.756;2023-09-19T14:07:11;28.10;76.90
17172;DHT22;8701;50.150;8.756;2023-09-19T14:11:16;27.90;77.30
17172;DHT22;8701;50.150;8.756;2023-09-19T14:15:18;28.60;77.70
17172;DHT22;8701;50.150;8.756;2023-09-19T14:19:22;28.10;75.90
17172;DHT22;8701;50.150;8.756;2023-09-19T14:23:24;27.40;81.80
17172;DHT22;8701;50.150;8.756;2023-09-19T14:27:27;27.30;79.70
17172;DHT22;8701;50.150;8.756;2023-09-19T14:31:29;27.10;81.70
17172;DHT22;8701;50.150;8.756;2023-09-19T14:35:33;26.60;83.20
17172;DHT22;8701;50.150;8.756;2023-09-19T14:39:35;25.80;81.20
17172;DHT22;8701;50.150;8.756;2023-09-19T14:43:39;25.80;83.10
17172;DHT22;8701;50.150;8.756;2023-09-19T14:47:42;25.80;82.80
17172;DHT22;8701;50.150;8.756;2023-09-19T14:51:45;25.60;83.10
17172;DHT22;8701;50.150;8.756;2023-09-19T14:55:48;25.20;82.90
17172;DHT22;8701;50.150;8.756;2023-09-19T14:59:53;25.10;85.90
17172;DHT22;8701;50.150;8.756;2023-09-19T15:03:55;25.20;84.80
17172;DHT22;8701;50.150;8.756;2023-09-19T15:07:59;24.90;85.90
17172;DHT22;8701;50.150;8.756;2023-09-19T15:12:04;24.60;86.30
17172;DHT22;8701;50.150;8.756;2023-09-19T15:16:07;24.70;86.10
17172;DHT22;8701;50.150;8.756;2023-09-19T15:20:11;24.60;90.40
17172;DHT22;8701;50.150;8.756;2023-09-19T15:24:16;24.60;85.90
17172;DHT22;8701;50.150;8.756;2023-09-19T15:28:19;24.20;86.80
17172;DHT22;8701;50.150;8.756;2023-09-19T15:32:23;24.00;87.80
17172;DHT22;8701;50.150;8.756;2023-09-19T15:36:26;23.70;88.50
17172;DHT22;8701;50.150;8.756;2023-09-19T15:40:29;23.80;90.00
17172;DHT22;8701;50.150;8.756;2023-09-19T15:44:31;23.70;89.60
17172;DHT22;8701;50.150;8.756;2023-09-19T15:48:34;23.70;90.20
17172;DHT22;8701;50.150;8.756;2023-09-19T15:52:36;23.70;90.40
17172;DHT22;8701;50.150;8.756;2023-09-19T15:56:40;23.60;90.00
17172;DHT22;8701;50.150;8.756;2023-09-19T16:00:43;23.50;91.30
17172;DHT22;8701;50.150;8.756;2023-09-19T16:04:46;23.50;91.40
17172;DHT22;8701;50.150;8.756;2023-09-19T16:08:50;23.30;93.40
17172;DHT22;8701;50.150;8.756;2023-09-19T16:12:53;23.30;92.70
17172;DHT22;8701;50.150;8.756;2023-09-19T16:16:56;23.10;92.20
17172;DHT22;8701;50.150;8.756;2023-09-19T16:21:02;23.00;93.00
17172;DHT22;8701;50.150;8.756;2023-09-19T16:25:05;23.00;91.90
17172;DHT22;8701;50.150;8.756;2023-09-19T16:29:09;22.80;92.40
17172;DHT22;8701;50.150;8.756;2023-09-19T16:33:12;22.70;91.70
17172;DHT22;8701;50.150;8.756;2023-09-19T16:37:14;22.70;92.30
17172;DHT22;8701;50.150;8.756;2023-09-19T16:41:17;22.70;93.20
17172;DHT22;8701;50.150;8.756;2023-09-19T16:45:21;22.70;93.30
17172;DHT22;8701;50.150;8.756;2023-09-19T16:49:23;22.50;93.30
17172;DHT22;8701;50.150;8.756;2023-09-19T16:53:26;22.40;93.10
17172;DHT22;8701;50.150;8.756;2023-09-19T16:57:28;22.30;93.50
17172;DHT22;8701;50.150;8.756;2023-09-19T17:01:32;22.20;93.90
17172;DHT22;8701;50.150;8.756;2023-09-19T17:05:34;22.20;94.50
17172;DHT22;8701;50.150;8.756;2023-09-19T17:09:39;22.20;95.50
17172;DHT22;8701;50.150;8.756;2023-09-19T17:13:42;22.10;94.80
17172;DHT22;8701;50.150;8.756;2023-09-19T17:17:46;21.90;94.80
17172;DHT22;8701;50.150;8.756;2023-09-19T17:21:49;21.90;94.80
17172;DHT22;8701;50.150;8.756;2023-09-19T17:26:01;21.90;95.70
17172;DHT22;8701;50.150;8.756;2023-09-19T17:30:04;21.90;96.30
17172;DHT22;8701;50.150;8.756;2023-09-19T17:34:08;21.90;95.90
17172;DHT22;8701;50.150;8.756;2023-09-19T17:38:11;21.80;96.20
17172;DHT22;8701;50.150;8.756;2023-09-19T17:42:13;21.70;96.50
17172;DHT22;8701;50.150;8.756;2023-09-19T17:46:17;21.70;96.50
17172;DHT22;8701;50.150;8.756;2023-09-19T17:50:21;21.70;96.70
17172;DHT22;8701;50.150;8.756;2023-09-19T17:54:23;21.60;96.90
17172;DHT22;8701;50.150;8.756;2023-09-19T17:58:26;21.60;97.40
17172;DHT22;8701;50.150;8.756;2023-09-19T18:02:29;21.60;97.60
17172;DHT22;8701;50.150;8.756;2023-09-19T18:06:33;21.60;97.90
17172;DHT22;8701;50.150;8.756;2023-09-19T18:10:37;21.60;98.20
17172;DHT22;8701;50.150;8.756;2023-09-19T18:14:39;21.70;98.70
17172;DHT22;8701;50.150;8.756;2023-09-19T18:18:42;21.60;99.30
17172;DHT22;8701;50.150;8.756;2023-09-19T18:22:48;21.50;98.70
17172;DHT22;8701;50.150;8.756;2023-09-19T18:26:50;21.50;99.40
17172;DHT22;8701;50.150;8.756;2023-09-19T18:30:52;21.50;99.90
17172;DHT22;8701;50.150;8.756;2023-09-19T18:34:55;21.50;99.60
17172;DHT22;8701;50.150;8.756;2023-09-19T18:39:00;21.40;99.40
17172;DHT22;8701;50.150;8.756;2023-09-19T18:43:02;21.40;99.70
17172;DHT22;8701;50.150;8.756;2023-09-19T18:47:05;21.30;99.90
17172;DHT22;8701;50.150;8.756;2023-09-19T18:51:08;21.20;99.90
17172;DHT22;8701;50.150;8.756;2023-09-19T18:55:12;21.10;99.90
17172;DHT22;8701;50.150;8.756;2023-09-19T18:59:15;21.00;99.90
17172;DHT22;8701;50.150;8.756;2023-09-19T19:03:21;20.80;99.90
17172;DHT22;8701;50.150;8.756;2023-09-19T19:07:24;20.80;99.90
17172;DHT22;8701;50.150;8.756;2023-09-19T19:11:28;20.80;99.90
17172;DHT22;8701;50.150;8.756;2023-09-19T19:15:33;20.70;99.90
17172;DHT22;8701;50.150;8.756;2023-09-19T19:19:35;20.50;99.90
17172;DHT22;8701;50.150;8.756;2023-09-19T19:23:38;20.70;99.90
17172;DHT22;8701;50.150;8.756;2023-09-19T19:27:42;20.50;99.90
17172;DHT22;8701;50.150;8.756;2023-09-19T19:31:45;20.40;99.90
17172;DHT22;8701;50.150;8.756;2023-09-19T19:35:47;20.30;99.90
17172;DHT22;8701;50.150;8.756;2023-09-19T19:39:49;20.30;99.90
17172;DHT22;8701;50.150;8.756;2023-09-19T19:43:53;20.30;99.90
17172;DHT22;8701;50.150;8.756;2023-09-19T19:47:56;20.40;99.90
17172;DHT22;8701;50.150;8.756;2023-09-19T19:51:59;20.30;99.90
17172;DHT22;8701;50.150;8.756;2023-09-19T19:56:01;20.20;99.90
17172;DHT22;8701;50.150;8.756;2023-09-19T20:00:07;20.10;99.90
17172;DHT22;8701;50.150;8.756;2023-09-19T20:04:10;20.10;99.90
17172;DHT22;8701;50.150;8.756;2023-09-19T20:08:14;20.00;99.90
17172;DHT22;8701;50.150;8.756;2023-09-19T20:12:16;20.20;99.90
17172;DHT22;8701;50.150;8.756;2023-09-19T20:16:20;20.00;99.90
17172;DHT22;8701;50.150;8.756;2023-09-19T20:20:22;20.10;99.90
17172;DHT22;8701;50.150;8.756;2023-09-19T20:24:24;20.00;99.90
17172;DHT22;8701;50.150;8.756;2023-09-19T20:28:27;19.90;99.90
17172;DHT22;8701;50.150;8.756;2023-09-19T20:32:31;19.80;99.90
17172;DHT22;8701;50.150;8.756;2023-09-19T20:36:34;19.70;99.90
17172;DHT22;8701;50.150;8.756;2023-09-19T20:40:39;19.80;99.90
17172;DHT22;8701;50.150;8.756;2023-09-19T20:44:42;19.70;99.90
17172;DHT22;8701;50.150;8.756;2023-09-19T20:48:47;19.60;99.90
17172;DHT22;8701;50.150;8.756;2023-09-19T20:52:50;19.60;99.90
17172;DHT22;8701;50.150;8.756;2023-09-19T20:56:53;19.60;99.90
17172;DHT22;8701;50.150;8.756;2023-09-19T21:01:00;19.30;99.90
17172;DHT22;8701;50.150;8.756;2023-09-19T21:05:04;19.50;99.90
17172;DHT22;8701;50.150;8.756;2023-09-19T21:09:07;19.50;99.90
17172;DHT22;8701;50.150;8.756;2023-09-19T21:13:09;19.50;99.90
17172;DHT22;8701;50.150;8.756;2023-09-19T21:17:11;19.40;99.90
17172;DHT22;8701;50.150;8.756;2023-09-19T21:21:15;19.40;99.90
17172;DHT22;8701;50.150;8.756;2023-09-19T21:25:17;19.40;99.90
17172;DHT22;8701;50.150;8.756;2023-09-19T21:29:20;19.30;99.90
17172;DHT22;8701;50.150;8.756;2023-09-19T21:33:24;19.30;99.90
17172;DHT22;8701;50.150;8.756;2023-09-19T21:37:27;19.20;99.90
17172;DHT22;8701;50.150;8.756;2023-09-19T21:41:30;19.20;99.90
17172;DHT22;8701;50.150;8.756;2023-09-19T21:45:33;19.10;99.90
17172;DHT22;8701;50.150;8.756;2023-09-19T21:49:35;19.10;99.90
17172;DHT22;8701;50.150;8.756;2023-09-19T21:53:40;19.00;99.90
17172;DHT22;8701;50.150;8.756;2023-09-19T21:57:43;19.00;99.90
17172;DHT22;8701;50.150;8.756;2023-09-19T22:01:45;19.00;99.90
17172;DHT22;8701;50.150;8.756;2023-09-19T22:05:48;19.00;99.90
17172;DHT22;8701;50.150;8.756;2023-09-19T22:09:51;18.90;99.90
17172;DHT22;8701;50.150;8.756;2023-09-19T22:13:54;18.90;99.90
17172;DHT22;8701;50.150;8.756;2023-09-19T22:17:56;18.80;99.90
17172;DHT22;8701;50.150;8.756;2023-09-19T22:21:59;18.80;99.90
17172;DHT22;8701;50.150;8.756;2023-09-19T22:26:03;18.70;99.90
17172;DHT22;8701;50.150;8.756;2023-09-19T22:30:07;18.70;99.90
17172;DHT22;8701;50.150;8.756;2023-09-19T22:34:12;18.80;99.90
17172;DHT22;8701;50.150;8.756;2023-09-19T22:38:15;18.80;99.90
17172;DHT22;8701;50.150;8.756;2023-09-19T22:42:20;18.90;99.90
17172;DHT22;8701;50.150;8.756;2023-09-19T22:46:24;19.00;99.90
17172;DHT22;8701;50.150;8.756;2023-09-19T22:50:27;19.00;99.90
17172;DHT22;8701;50.150;8.756;2023-09-19T22:54:30;19.00;99.90
17172;DHT22;8701;50.150;8.756;2023-09-19T22:58:38;19.00;99.90
17172;DHT22;8701;50.150;8.756;2023-09-19T23:02:41;19.00;99.90
17172;DHT22;8701;50.150;8.756;2023-09-19T23:06:46;19.10;99.90
17172;DHT22;8701;50.150;8.756;2023-09-19T23:10:52;19.00;99.90
17172;DHT22;8701;50.150;8.756;2023-09-19T23:14:56;19.00;99.90
17172;DHT22;8701;50.150;8.756;2023-09-19T23:19:03;19.10;99.90
17172;DHT22;8701;50.150;8.756;2023-09-19T23:23:13;18.90;99.90
17172;DHT22;8701;50.150;8.756;2023-09-19T23:27:16;18.90;99.90
17172;DHT22;8701;50.150;8.756;2023-09-19T23:31:26;18.90;99.90
17172;DHT22;8701;50.150;8.756;2023-09-19T23:35:29;18.90;99.90
17172;DHT22;8701;50.150;8.756;2023-09-19T23:39:32;18.90;99.90
17172;DHT22;8701;50.150;8.756;2023-09-19T23:43:34;18.80;99.90
17172;DHT22;8701;50.150;8.756;2023-09-19T23:47:38;18.80;99.90
17172;DHT22;8701;50.150;8.756;2023-09-19T23:51:41;18.80;99.90
17172;DHT22;8701;50.150;8.756;2023-09-19T23:55:44;18.70;99.90
17172;DHT22;8701;50.150;8.756;2023-09-19T23:59:48;18.70;99.90
